EKRK/RKE METAR and TAF weather

Enter ICAO airport designator
Station Type Date Time Source
EKRK METAR 2021/07/29 18:20 UTC NOAA

EKRK 291820Z AUTO 23010KT 9999 FEW040/// SCT077/// 15/12 Q1004


Station Type Date Time Source
EKRK Decoded METAR 2021/07/29 18:20 UTC NOAA

Koebenhavn / Roskilde, Denmark (EKRK) 55-35N 012-08E 44M
Jul 29, 2021 - 02:20 PM EDT / 2021.07.29 1820 UTC
Wind: from the SW (230 degrees) at 12 MPH (10 KT):0
Visibility: greater than 7 mile(s):0
Sky conditions: partly cloudy
Temperature: 59 F (15 C)
Dew Point: 53 F (12 C)
Relative Humidity: 82%
Pressure (altimeter): 29.65 in. Hg (1004 hPa)
ob: EKRK 291820Z AUTO 23010KT 9999 FEW040/// SCT077/// 15/12 Q1004
cycle: 18

Station Type Date Time Source
EKRK TAF 2020/10/13 06:33 UTC NOAA

TAF EKRK 130526Z 1306/1415 09004KT 0200 FG VV001
TEMPO 1306/1307 6000 NSW NSC
BECMG 1307/1309 9999 NSW FEW020

Example: see airport list